sensor_id;sensor_type;location;lat;lon;timestamp;P1;durP1;ratioP1;P2;durP2;ratioP2
2259;SDS011;333;48.800;9.530;2022-07-06T00:01:50;3.17;;;2.97;;
2259;SDS011;333;48.800;9.530;2022-07-06T00:04:17;2.77;;;2.57;;
2259;SDS011;333;48.800;9.530;2022-07-06T00:06:45;5.60;;;2.83;;
2259;SDS011;333;48.800;9.530;2022-07-06T00:09:12;3.70;;;2.03;;
2259;SDS011;333;48.800;9.530;2022-07-06T00:11:39;3.73;;;3.30;;
2259;SDS011;333;48.800;9.530;2022-07-06T00:14:06;3.37;;;3.10;;
2259;SDS011;333;48.800;9.530;2022-07-06T00:16:33;3.27;;;2.83;;
2259;SDS011;333;48.800;9.530;2022-07-06T00:19:02;2.83;;;2.63;;
2259;SDS011;333;48.800;9.530;2022-07-06T00:21:29;2.57;;;2.47;;
2259;SDS011;333;48.800;9.530;2022-07-06T00:23:56;3.03;;;2.83;;
2259;SDS011;333;48.800;9.530;2022-07-06T00:26:23;2.80;;;2.60;;
2259;SDS011;333;48.800;9.530;2022-07-06T00:28:51;3.17;;;2.87;;
2259;SDS011;333;48.800;9.530;2022-07-06T00:31:18;3.40;;;3.10;;
2259;SDS011;333;48.800;9.530;2022-07-06T00:33:45;3.23;;;3.03;;
2259;SDS011;333;48.800;9.530;2022-07-06T00:36:14;2.80;;;2.60;;
2259;SDS011;333;48.800;9.530;2022-07-06T00:38:41;2.77;;;2.57;;
2259;SDS011;333;48.800;9.530;2022-07-06T00:41:08;4.00;;;2.80;;
2259;SDS011;333;48.800;9.530;2022-07-06T00:43:48;3.70;;;3.00;;
2259;SDS011;333;48.800;9.530;2022-07-06T00:46:15;2.80;;;2.60;;
2259;SDS011;333;48.800;9.530;2022-07-06T00:48:42;2.20;;;2.10;;
2259;SDS011;333;48.800;9.530;2022-07-06T00:51:10;2.77;;;2.57;;
2259;SDS011;333;48.800;9.530;2022-07-06T00:53:39;3.23;;;2.93;;
2259;SDS011;333;48.800;9.530;2022-07-06T00:56:07;2.67;;;2.47;;
2259;SDS011;333;48.800;9.530;2022-07-06T00:58:34;2.70;;;2.50;;
2259;SDS011;333;48.800;9.530;2022-07-06T01:01:01;2.97;;;2.60;;
2259;SDS011;333;48.800;9.530;2022-07-06T01:03:28;2.67;;;2.47;;
2259;SDS011;333;48.800;9.530;2022-07-06T01:05:55;2.60;;;2.50;;
2259;SDS011;333;48.800;9.530;2022-07-06T01:08:23;3.07;;;2.87;;
2259;SDS011;333;48.800;9.530;2022-07-06T01:10:51;3.00;;;2.70;;
2259;SDS011;333;48.800;9.530;2022-07-06T01:13:18;3.80;;;3.50;;
2259;SDS011;333;48.800;9.530;2022-07-06T01:15:46;2.90;;;2.70;;
2259;SDS011;333;48.800;9.530;2022-07-06T01:18:13;3.33;;;3.10;;
2259;SDS011;333;48.800;9.530;2022-07-06T01:20:42;3.50;;;3.30;;
2259;SDS011;333;48.800;9.530;2022-07-06T01:23:09;4.20;;;3.27;;
2259;SDS011;333;48.800;9.530;2022-07-06T01:25:36;2.70;;;2.50;;
2259;SDS011;333;48.800;9.530;2022-07-06T01:28:03;3.80;;;3.50;;
2259;SDS011;333;48.800;9.530;2022-07-06T01:30:31;3.40;;;3.20;;
2259;SDS011;333;48.800;9.530;2022-07-06T01:32:58;3.10;;;2.90;;
2259;SDS011;333;48.800;9.530;2022-07-06T01:35:25;3.43;;;3.23;;
2259;SDS011;333;48.800;9.530;2022-07-06T01:37:54;3.40;;;3.10;;
2259;SDS011;333;48.800;9.530;2022-07-06T01:40:21;2.73;;;2.53;;
2259;SDS011;333;48.800;9.530;2022-07-06T01:42:49;3.13;;;2.80;;
2259;SDS011;333;48.800;9.530;2022-07-06T01:45:16;3.90;;;3.27;;
2259;SDS011;333;48.800;9.530;2022-07-06T01:47:43;4.67;;;3.50;;
2259;SDS011;333;48.800;9.530;2022-07-06T01:50:10;3.20;;;3.00;;
2259;SDS011;333;48.800;9.530;2022-07-06T01:52:37;4.03;;;3.73;;
2259;SDS011;333;48.800;9.530;2022-07-06T01:55:06;3.50;;;3.30;;
2259;SDS011;333;48.800;9.530;2022-07-06T01:57:33;3.40;;;3.10;;
2259;SDS011;333;48.800;9.530;2022-07-06T02:00:01;4.43;;;3.83;;
2259;SDS011;333;48.800;9.530;2022-07-06T02:02:28;3.60;;;3.30;;
2259;SDS011;333;48.800;9.530;2022-07-06T02:04:55;3.37;;;3.07;;
2259;SDS011;333;48.800;9.530;2022-07-06T02:07:22;3.10;;;2.90;;
2259;SDS011;333;48.800;9.530;2022-07-06T02:09:49;3.87;;;3.57;;
2259;SDS011;333;48.800;9.530;2022-07-06T02:12:18;4.03;;;3.73;;
2259;SDS011;333;48.800;9.530;2022-07-06T02:14:46;3.30;;;3.07;;
2259;SDS011;333;48.800;9.530;2022-07-06T02:17:13;4.30;;;3.90;;
2259;SDS011;333;48.800;9.530;2022-07-06T02:19:40;3.00;;;2.80;;
2259;SDS011;333;48.800;9.530;2022-07-06T02:22:07;3.67;;;3.37;;
2259;SDS011;333;48.800;9.530;2022-07-06T02:24:35;6.93;;;3.90;;
2259;SDS011;333;48.800;9.530;2022-07-06T02:27:02;3.67;;;3.37;;
2259;SDS011;333;48.800;9.530;2022-07-06T02:29:31;4.00;;;3.60;;
2259;SDS011;333;48.800;9.530;2022-07-06T02:31:58;3.63;;;3.37;;
2259;SDS011;333;48.800;9.530;2022-07-06T02:34:25;3.70;;;3.27;;
2259;SDS011;333;48.800;9.530;2022-07-06T02:36:52;4.43;;;4.13;;
2259;SDS011;333;48.800;9.530;2022-07-06T02:39:19;3.43;;;3.13;;
2259;SDS011;333;48.800;9.530;2022-07-06T02:41:46;3.77;;;3.37;;
2259;SDS011;333;48.800;9.530;2022-07-06T02:44:13;3.97;;;3.77;;
2259;SDS011;333;48.800;9.530;2022-07-06T02:46:42;4.33;;;3.93;;
2259;SDS011;333;48.800;9.530;2022-07-06T02:49:09;3.73;;;3.43;;
2259;SDS011;333;48.800;9.530;2022-07-06T02:51:36;4.10;;;3.80;;
2259;SDS011;333;48.800;9.530;2022-07-06T02:54:04;4.33;;;3.80;;
2259;SDS011;333;48.800;9.530;2022-07-06T02:56:31;3.80;;;3.50;;
2259;SDS011;333;48.800;9.530;2022-07-06T02:58:58;5.70;;;4.03;;
2259;SDS011;333;48.800;9.530;2022-07-06T03:01:25;3.93;;;3.63;;
2259;SDS011;333;48.800;9.530;2022-07-06T03:03:54;4.20;;;3.90;;
2259;SDS011;333;48.800;9.530;2022-07-06T03:06:21;3.90;;;3.60;;
2259;SDS011;333;48.800;9.530;2022-07-06T03:08:48;4.20;;;3.83;;
2259;SDS011;333;48.800;9.530;2022-07-06T03:11:15;3.70;;;3.50;;
2259;SDS011;333;48.800;9.530;2022-07-06T03:13:42;6.90;;;4.20;;
2259;SDS011;333;48.800;9.530;2022-07-06T03:16:09;5.17;;;4.77;;
2259;SDS011;333;48.800;9.530;2022-07-06T03:18:37;4.40;;;4.10;;
2259;SDS011;333;48.800;9.530;2022-07-06T03:21:05;4.20;;;3.90;;
2259;SDS011;333;48.800;9.530;2022-07-06T03:23:32;5.57;;;5.07;;
2259;SDS011;333;48.800;9.530;2022-07-06T03:26:00;5.30;;;4.80;;
2259;SDS011;333;48.800;9.530;2022-07-06T03:28:27;5.00;;;4.70;;
2259;SDS011;333;48.800;9.530;2022-07-06T03:30:54;4.83;;;4.33;;
2259;SDS011;333;48.800;9.530;2022-07-06T03:33:21;3.67;;;3.47;;
2259;SDS011;333;48.800;9.530;2022-07-06T03:35:48;5.00;;;4.60;;
2259;SDS011;333;48.800;9.530;2022-07-06T03:38:17;4.77;;;4.43;;
2259;SDS011;333;48.800;9.530;2022-07-06T03:40:44;5.37;;;4.70;;
2259;SDS011;333;48.800;9.530;2022-07-06T03:43:11;4.37;;;3.97;;
2259;SDS011;333;48.800;9.530;2022-07-06T03:45:39;4.97;;;4.57;;
2259;SDS011;333;48.800;9.530;2022-07-06T03:48:06;5.00;;;4.60;;
2259;SDS011;333;48.800;9.530;2022-07-06T03:50:33;5.67;;;5.17;;
2259;SDS011;333;48.800;9.530;2022-07-06T03:53:00;6.00;;;5.50;;
2259;SDS011;333;48.800;9.530;2022-07-06T03:55:29;5.97;;;5.30;;
2259;SDS011;333;48.800;9.530;2022-07-06T03:57:56;5.80;;;5.30;;
2259;SDS011;333;48.800;9.530;2022-07-06T04:00:23;6.47;;;5.80;;
2259;SDS011;333;48.800;9.530;2022-07-06T04:02:51;6.10;;;5.50;;
2259;SDS011;333;48.800;9.530;2022-07-06T04:05:18;6.23;;;5.50;;
2259;SDS011;333;48.800;9.530;2022-07-06T04:07:46;7.83;;;5.67;;
2259;SDS011;333;48.800;9.530;2022-07-06T04:10:13;5.53;;;5.13;;
2259;SDS011;333;48.800;9.530;2022-07-06T04:12:42;5.70;;;5.20;;
2259;SDS011;333;48.800;9.530;2022-07-06T04:15:10;5.23;;;4.80;;
2259;SDS011;333;48.800;9.530;2022-07-06T04:17:37;5.47;;;4.97;;
2259;SDS011;333;48.800;9.530;2022-07-06T04:20:21;5.07;;;4.57;;
2259;SDS011;333;48.800;9.530;2022-07-06T04:22:48;6.50;;;5.23;;
2259;SDS011;333;48.800;9.530;2022-07-06T04:25:16;5.60;;;5.13;;
2259;SDS011;333;48.800;9.530;2022-07-06T04:27:44;5.13;;;4.67;;
2259;SDS011;333;48.800;9.530;2022-07-06T04:30:12;4.97;;;4.57;;
2259;SDS011;333;48.800;9.530;2022-07-06T04:32:39;5.60;;;5.10;;
2259;SDS011;333;48.800;9.530;2022-07-06T04:35:06;5.00;;;4.60;;
2259;SDS011;333;48.800;9.530;2022-07-06T04:37:33;4.47;;;4.13;;
2259;SDS011;333;48.800;9.530;2022-07-06T04:40:01;4.60;;;4.20;;
2259;SDS011;333;48.800;9.530;2022-07-06T04:42:28;5.83;;;4.53;;
2259;SDS011;333;48.800;9.530;2022-07-06T04:44:56;4.70;;;4.30;;
2259;SDS011;333;48.800;9.530;2022-07-06T04:47:24;5.63;;;5.13;;
2259;SDS011;333;48.800;9.530;2022-07-06T04:49:51;4.90;;;4.50;;
2259;SDS011;333;48.800;9.530;2022-07-06T04:52:18;5.17;;;4.70;;
2259;SDS011;333;48.800;9.530;2022-07-06T04:54:45;5.57;;;5.17;;
2259;SDS011;333;48.800;9.530;2022-07-06T04:57:12;6.03;;;4.73;;
2259;SDS011;333;48.800;9.530;2022-07-06T04:59:40;4.80;;;4.43;;
2259;SDS011;333;48.800;9.530;2022-07-06T05:02:08;4.70;;;4.33;;
2259;SDS011;333;48.800;9.530;2022-07-06T05:04:35;4.47;;;4.17;;
2259;SDS011;333;48.800;9.530;2022-07-06T05:07:03;4.80;;;4.40;;
2259;SDS011;333;48.800;9.530;2022-07-06T05:09:30;4.53;;;4.23;;
2259;SDS011;333;48.800;9.530;2022-07-06T05:11:57;5.10;;;4.70;;
2259;SDS011;333;48.800;9.530;2022-07-06T05:14:24;4.10;;;3.80;;
2259;SDS011;333;48.800;9.530;2022-07-06T05:16:51;6.00;;;5.13;;
2259;SDS011;333;48.800;9.530;2022-07-06T05:19:20;5.00;;;4.50;;
2259;SDS011;333;48.800;9.530;2022-07-06T05:21:47;4.57;;;4.13;;
2259;SDS011;333;48.800;9.530;2022-07-06T05:24:14;4.70;;;4.23;;
2259;SDS011;333;48.800;9.530;2022-07-06T05:26:41;10.03;;;4.57;;
2259;SDS011;333;48.800;9.530;2022-07-06T05:29:09;5.93;;;5.03;;
2259;SDS011;333;48.800;9.530;2022-07-06T05:31:36;8.37;;;4.80;;
2259;SDS011;333;48.800;9.530;2022-07-06T05:34:03;5.50;;;4.97;;
2259;SDS011;333;48.800;9.530;2022-07-06T05:36:31;7.73;;;6.00;;
2259;SDS011;333;48.800;9.530;2022-07-06T05:38:59;4.53;;;4.13;;
2259;SDS011;333;48.800;9.530;2022-07-06T05:41:26;5.00;;;4.50;;
2259;SDS011;333;48.800;9.530;2022-07-06T05:43:53;5.50;;;5.00;;
2259;SDS011;333;48.800;9.530;2022-07-06T05:46:20;5.40;;;5.00;;
2259;SDS011;333;48.800;9.530;2022-07-06T05:48:47;5.60;;;5.10;;
2259;SDS011;333;48.800;9.530;2022-07-06T05:51:33;5.63;;;4.70;;
2259;SDS011;333;48.800;9.530;2022-07-06T05:54:00;5.27;;;4.77;;
2259;SDS011;333;48.800;9.530;2022-07-06T05:56:28;5.00;;;4.50;;
2259;SDS011;333;48.800;9.530;2022-07-06T05:58:55;5.70;;;5.07;;
2259;SDS011;333;48.800;9.530;2022-07-06T06:01:22;4.53;;;4.13;;
2259;SDS011;333;48.800;9.530;2022-07-06T06:03:49;7.43;;;4.90;;
2259;SDS011;333;48.800;9.530;2022-07-06T06:06:16;6.13;;;5.60;;
2259;SDS011;333;48.800;9.530;2022-07-06T06:08:45;4.10;;;3.80;;
2259;SDS011;333;48.800;9.530;2022-07-06T06:11:12;4.97;;;4.10;;
2259;SDS011;333;48.800;9.530;2022-07-06T06:13:39;4.67;;;3.90;;
2259;SDS011;333;48.800;9.530;2022-07-06T06:16:06;5.27;;;4.20;;
2259;SDS011;333;48.800;9.530;2022-07-06T06:18:33;4.43;;;4.00;;
2259;SDS011;333;48.800;9.530;2022-07-06T06:21:01;4.40;;;4.10;;
2259;SDS011;333;48.800;9.530;2022-07-06T06:23:28;3.73;;;3.43;;
2259;SDS011;333;48.800;9.530;2022-07-06T06:25:56;4.70;;;4.37;;
2259;SDS011;333;48.800;9.530;2022-07-06T06:28:23;6.07;;;4.10;;
2259;SDS011;333;48.800;9.530;2022-07-06T06:30:51;4.30;;;3.90;;
2259;SDS011;333;48.800;9.530;2022-07-06T06:33:18;4.43;;;4.03;;
2259;SDS011;333;48.800;9.530;2022-07-06T06:35:46;6.73;;;5.03;;
2259;SDS011;333;48.800;9.530;2022-07-06T06:38:14;3.47;;;3.17;;
2259;SDS011;333;48.800;9.530;2022-07-06T06:40:42;4.47;;;4.07;;
2259;SDS011;333;48.800;9.530;2022-07-06T06:43:10;4.27;;;3.97;;
2259;SDS011;333;48.800;9.530;2022-07-06T06:45:37;5.30;;;3.53;;
2259;SDS011;333;48.800;9.530;2022-07-06T06:48:05;3.90;;;3.33;;
2259;SDS011;333;48.800;9.530;2022-07-06T06:50:32;3.60;;;3.20;;
2259;SDS011;333;48.800;9.530;2022-07-06T06:53:00;3.80;;;3.50;;
2259;SDS011;333;48.800;9.530;2022-07-06T06:55:27;3.03;;;2.83;;
2259;SDS011;333;48.800;9.530;2022-07-06T06:57:54;3.60;;;3.40;;
2259;SDS011;333;48.800;9.530;2022-07-06T07:00:23;4.13;;;3.80;;
2259;SDS011;333;48.800;9.530;2022-07-06T07:02:50;3.20;;;2.80;;
2259;SDS011;333;48.800;9.530;2022-07-06T07:05:17;4.57;;;3.87;;
2259;SDS011;333;48.800;9.530;2022-07-06T07:07:44;3.60;;;3.30;;
2259;SDS011;333;48.800;9.530;2022-07-06T07:10:11;3.67;;;3.40;;
2259;SDS011;333;48.800;9.530;2022-07-06T07:12:42;3.93;;;3.50;;
2259;SDS011;333;48.800;9.530;2022-07-06T07:15:10;3.13;;;2.93;;
2259;SDS011;333;48.800;9.530;2022-07-06T07:17:39;3.90;;;3.60;;
2259;SDS011;333;48.800;9.530;2022-07-06T07:20:06;5.33;;;3.87;;
2259;SDS011;333;48.800;9.530;2022-07-06T07:22:34;4.13;;;3.50;;
2259;SDS011;333;48.800;9.530;2022-07-06T07:25:01;4.10;;;3.80;;
2259;SDS011;333;48.800;9.530;2022-07-06T07:27:28;3.83;;;3.07;;
2259;SDS011;333;48.800;9.530;2022-07-06T07:29:55;4.60;;;3.30;;
2259;SDS011;333;48.800;9.530;2022-07-06T07:32:22;2.87;;;2.67;;
2259;SDS011;333;48.800;9.530;2022-07-06T07:34:51;3.77;;;3.40;;
2259;SDS011;333;48.800;9.530;2022-07-06T07:37:18;3.00;;;2.80;;
2259;SDS011;333;48.800;9.530;2022-07-06T07:39:45;2.87;;;2.63;;
2259;SDS011;333;48.800;9.530;2022-07-06T07:42:12;3.60;;;3.30;;
2259;SDS011;333;48.800;9.530;2022-07-06T07:44:40;3.20;;;3.00;;
2259;SDS011;333;48.800;9.530;2022-07-06T07:47:07;5.27;;;3.80;;
2259;SDS011;333;48.800;9.530;2022-07-06T07:49:34;3.77;;;3.43;;
2259;SDS011;333;48.800;9.530;2022-07-06T07:52:03;4.07;;;3.67;;
2259;SDS011;333;48.800;9.530;2022-07-06T07:54:30;3.73;;;3.43;;
2259;SDS011;333;48.800;9.530;2022-07-06T07:56:57;4.03;;;3.17;;
2259;SDS011;333;48.800;9.530;2022-07-06T07:59:25;3.63;;;3.13;;
2259;SDS011;333;48.800;9.530;2022-07-06T08:01:52;3.80;;;3.37;;
2259;SDS011;333;48.800;9.530;2022-07-06T08:04:19;3.07;;;2.87;;
2259;SDS011;333;48.800;9.530;2022-07-06T08:06:46;4.07;;;3.20;;
2259;SDS011;333;48.800;9.530;2022-07-06T08:09:15;4.40;;;4.00;;
2259;SDS011;333;48.800;9.530;2022-07-06T08:11:43;3.73;;;3.40;;
2259;SDS011;333;48.800;9.530;2022-07-06T08:14:10;4.27;;;3.77;;
2259;SDS011;333;48.800;9.530;2022-07-06T08:16:39;4.53;;;4.13;;
2259;SDS011;333;48.800;9.530;2022-07-06T08:19:06;4.23;;;3.70;;
2259;SDS011;333;48.800;9.530;2022-07-06T08:21:34;3.70;;;3.40;;
2259;SDS011;333;48.800;9.530;2022-07-06T08:24:01;5.47;;;5.07;;
2259;SDS011;333;48.800;9.530;2022-07-06T08:26:30;4.30;;;3.73;;
2259;SDS011;333;48.800;9.530;2022-07-06T08:28:57;3.70;;;3.40;;
2259;SDS011;333;48.800;9.530;2022-07-06T08:31:24;5.83;;;3.93;;
2259;SDS011;333;48.800;9.530;2022-07-06T08:33:52;3.63;;;3.33;;
2259;SDS011;333;48.800;9.530;2022-07-06T08:36:20;3.97;;;3.67;;
2259;SDS011;333;48.800;9.530;2022-07-06T08:38:48;3.43;;;3.23;;
2259;SDS011;333;48.800;9.530;2022-07-06T08:41:16;3.43;;;3.13;;
2259;SDS011;333;48.800;9.530;2022-07-06T08:43:45;3.73;;;3.53;;
2259;SDS011;333;48.800;9.530;2022-07-06T08:46:13;5.13;;;3.53;;
2259;SDS011;333;48.800;9.530;2022-07-06T08:48:40;3.57;;;3.37;;
2259;SDS011;333;48.800;9.530;2022-07-06T08:51:08;3.63;;;3.33;;
2259;SDS011;333;48.800;9.530;2022-07-06T08:53:35;3.33;;;3.03;;
2259;SDS011;333;48.800;9.530;2022-07-06T08:56:03;4.47;;;4.10;;
2259;SDS011;333;48.800;9.530;2022-07-06T08:58:30;3.80;;;3.50;;
2259;SDS011;333;48.800;9.530;2022-07-06T09:00:59;3.60;;;3.30;;
2259;SDS011;333;48.800;9.530;2022-07-06T09:03:27;3.77;;;3.47;;
2259;SDS011;333;48.800;9.530;2022-07-06T09:05:56;3.17;;;2.97;;
2259;SDS011;333;48.800;9.530;2022-07-06T09:08:25;3.30;;;3.00;;
2259;SDS011;333;48.800;9.530;2022-07-06T09:10:53;3.53;;;3.33;;
2259;SDS011;333;48.800;9.530;2022-07-06T09:13:21;3.87;;;3.57;;
2259;SDS011;333;48.800;9.530;2022-07-06T09:15:48;3.40;;;3.20;;
2259;SDS011;333;48.800;9.530;2022-07-06T09:18:17;3.40;;;3.10;;
2259;SDS011;333;48.800;9.530;2022-07-06T09:20:44;4.20;;;3.90;;
2259;SDS011;333;48.800;9.530;2022-07-06T09:23:14;4.03;;;3.73;;
2259;SDS011;333;48.800;9.530;2022-07-06T09:25:42;3.17;;;2.97;;
2259;SDS011;333;48.800;9.530;2022-07-06T09:28:09;3.83;;;3.50;;
2259;SDS011;333;48.800;9.530;2022-07-06T09:30:36;3.53;;;3.33;;
2259;SDS011;333;48.800;9.530;2022-07-06T09:33:05;3.43;;;3.23;;
2259;SDS011;333;48.800;9.530;2022-07-06T09:35:37;3.73;;;3.27;;
2259;SDS011;333;48.800;9.530;2022-07-06T09:38:04;3.80;;;3.50;;
2259;SDS011;333;48.800;9.530;2022-07-06T09:40:33;3.80;;;3.50;;
2259;SDS011;333;48.800;9.530;2022-07-06T09:43:07;4.00;;;3.57;;
2259;SDS011;333;48.800;9.530;2022-07-06T09:45:34;4.00;;;3.70;;
2259;SDS011;333;48.800;9.530;2022-07-06T09:48:05;3.80;;;3.50;;
2259;SDS011;333;48.800;9.530;2022-07-06T09:50:39;3.50;;;3.20;;
2259;SDS011;333;48.800;9.530;2022-07-06T09:53:06;3.50;;;3.30;;
2259;SDS011;333;48.800;9.530;2022-07-06T09:55:33;3.87;;;3.57;;
2259;SDS011;333;48.800;9.530;2022-07-06T09:58:01;5.97;;;3.33;;
2259;SDS011;333;48.800;9.530;2022-07-06T10:00:28;3.57;;;3.07;;
2259;SDS011;333;48.800;9.530;2022-07-06T10:02:55;3.37;;;3.10;;
2259;SDS011;333;48.800;9.530;2022-07-06T10:05:23;3.60;;;3.40;;
2259;SDS011;333;48.800;9.530;2022-07-06T10:07:56;4.60;;;4.07;;
2259;SDS011;333;48.800;9.530;2022-07-06T10:10:24;3.50;;;3.30;;
2259;SDS011;333;48.800;9.530;2022-07-06T10:12:52;4.53;;;3.03;;
2259;SDS011;333;48.800;9.530;2022-07-06T10:15:21;3.47;;;3.17;;
2259;SDS011;333;48.800;9.530;2022-07-06T10:17:48;4.17;;;3.77;;
2259;SDS011;333;48.800;9.530;2022-07-06T10:20:17;3.27;;;3.07;;
2259;SDS011;333;48.800;9.530;2022-07-06T10:22:44;3.77;;;3.47;;
2259;SDS011;333;48.800;9.530;2022-07-06T10:25:13;3.63;;;3.33;;
2259;SDS011;333;48.800;9.530;2022-07-06T10:27:42;5.17;;;3.23;;
2259;SDS011;333;48.800;9.530;2022-07-06T10:30:10;3.63;;;2.90;;
2259;SDS011;333;48.800;9.530;2022-07-06T10:32:38;3.80;;;3.47;;
2259;SDS011;333;48.800;9.530;2022-07-06T10:35:06;3.80;;;3.60;;
2259;SDS011;333;48.800;9.530;2022-07-06T10:37:33;4.83;;;4.07;;
2259;SDS011;333;48.800;9.530;2022-07-06T10:40:00;3.93;;;3.63;;
2259;SDS011;333;48.800;9.530;2022-07-06T10:42:47;3.20;;;3.00;;
2259;SDS011;333;48.800;9.530;2022-07-06T10:45:19;3.60;;;3.30;;
2259;SDS011;333;48.800;9.530;2022-07-06T10:47:48;3.70;;;3.43;;
2259;SDS011;333;48.800;9.530;2022-07-06T10:50:35;4.60;;;3.30;;
2259;SDS011;333;48.800;9.530;2022-07-06T10:53:02;8.20;;;3.23;;
2259;SDS011;333;48.800;9.530;2022-07-06T10:55:30;3.37;;;3.07;;
2259;SDS011;333;48.800;9.530;2022-07-06T10:57:59;3.60;;;2.80;;
2259;SDS011;333;48.800;9.530;2022-07-06T11:00:27;3.17;;;2.93;;
2259;SDS011;333;48.800;9.530;2022-07-06T11:05:57;2.97;;;2.77;;
2259;SDS011;333;48.800;9.530;2022-07-06T11:11:10;3.70;;;3.50;;
2259;SDS011;333;48.800;9.530;2022-07-06T11:13:43;3.90;;;3.47;;
2259;SDS011;333;48.800;9.530;2022-07-06T11:16:10;3.60;;;3.30;;
2259;SDS011;333;48.800;9.530;2022-07-06T11:18:40;2.80;;;2.60;;
2259;SDS011;333;48.800;9.530;2022-07-06T11:21:21;3.20;;;2.80;;
2259;SDS011;333;48.800;9.530;2022-07-06T11:23:48;3.20;;;2.90;;
2259;SDS011;333;48.800;9.530;2022-07-06T11:26:16;3.20;;;2.80;;
2259;SDS011;333;48.800;9.530;2022-07-06T11:28:46;3.30;;;3.10;;
2259;SDS011;333;48.800;9.530;2022-07-06T11:31:14;3.73;;;3.37;;
2259;SDS011;333;48.800;9.530;2022-07-06T11:33:44;3.33;;;3.13;;
2259;SDS011;333;48.800;9.530;2022-07-06T11:36:12;3.30;;;3.10;;
2259;SDS011;333;48.800;9.530;2022-07-06T11:38:40;3.17;;;2.97;;
2259;SDS011;333;48.800;9.530;2022-07-06T11:41:07;3.77;;;3.47;;
2259;SDS011;333;48.800;9.530;2022-07-06T11:43:34;3.57;;;3.27;;
2259;SDS011;333;48.800;9.530;2022-07-06T11:46:04;3.23;;;3.00;;
2259;SDS011;333;48.800;9.530;2022-07-06T11:48:31;4.83;;;3.00;;
2259;SDS011;333;48.800;9.530;2022-07-06T11:50:59;3.43;;;3.23;;
2259;SDS011;333;48.800;9.530;2022-07-06T11:53:26;3.17;;;2.97;;
2259;SDS011;333;48.800;9.530;2022-07-06T11:55:53;3.37;;;3.07;;
2259;SDS011;333;48.800;9.530;2022-07-06T11:58:22;4.27;;;3.30;;
2259;SDS011;333;48.800;9.530;2022-07-06T12:01:04;4.03;;;3.47;;
2259;SDS011;333;48.800;9.530;2022-07-06T12:03:31;3.93;;;2.70;;
2259;SDS011;333;48.800;9.530;2022-07-06T12:05:59;4.30;;;3.10;;
2259;SDS011;333;48.800;9.530;2022-07-06T12:08:27;3.27;;;2.97;;
2259;SDS011;333;48.800;9.530;2022-07-06T12:10:54;2.60;;;2.40;;
2259;SDS011;333;48.800;9.530;2022-07-06T12:13:22;2.80;;;2.60;;
2259;SDS011;333;48.800;9.530;2022-07-06T12:15:49;3.43;;;3.13;;
2259;SDS011;333;48.800;9.530;2022-07-06T12:18:18;3.10;;;2.90;;
2259;SDS011;333;48.800;9.530;2022-07-06T12:20:45;2.63;;;2.50;;
2259;SDS011;333;48.800;9.530;2022-07-06T12:23:12;3.90;;;3.63;;
2259;SDS011;333;48.800;9.530;2022-07-06T12:25:39;3.47;;;3.17;;
2259;SDS011;333;48.800;9.530;2022-07-06T12:28:06;3.13;;;2.93;;
2259;SDS011;333;48.800;9.530;2022-07-06T12:30:48;2.63;;;2.43;;
2259;SDS011;333;48.800;9.530;2022-07-06T12:33:15;4.27;;;3.70;;
2259;SDS011;333;48.800;9.530;2022-07-06T12:35:45;2.90;;;2.60;;
2259;SDS011;333;48.800;9.530;2022-07-06T12:38:12;2.63;;;2.50;;
2259;SDS011;333;48.800;9.530;2022-07-06T12:40:39;3.40;;;3.10;;
2259;SDS011;333;48.800;9.530;2022-07-06T12:43:06;2.50;;;2.30;;
2259;SDS011;333;48.800;9.530;2022-07-06T12:45:34;3.10;;;2.90;;
2259;SDS011;333;48.800;9.530;2022-07-06T12:48:01;3.70;;;3.20;;
2259;SDS011;333;48.800;9.530;2022-07-06T12:50:30;2.63;;;2.43;;
2259;SDS011;333;48.800;9.530;2022-07-06T12:52:59;3.40;;;3.20;;
2259;SDS011;333;48.800;9.530;2022-07-06T12:55:27;3.20;;;2.90;;
2259;SDS011;333;48.800;9.530;2022-07-06T12:57:54;3.90;;;3.60;;
2259;SDS011;333;48.800;9.530;2022-07-06T13:00:23;4.00;;;3.60;;
2259;SDS011;333;48.800;9.530;2022-07-06T13:02:51;3.40;;;2.80;;
2259;SDS011;333;48.800;9.530;2022-07-06T13:05:23;2.83;;;2.63;;
2259;SDS011;333;48.800;9.530;2022-07-06T13:07:53;3.60;;;3.27;;
2259;SDS011;333;48.800;9.530;2022-07-06T13:10:22;3.33;;;3.13;;
2259;SDS011;333;48.800;9.530;2022-07-06T13:12:50;3.80;;;3.50;;
2259;SDS011;333;48.800;9.530;2022-07-06T13:15:17;4.90;;;3.03;;
2259;SDS011;333;48.800;9.530;2022-07-06T13:17:44;3.90;;;3.40;;
2259;SDS011;333;48.800;9.530;2022-07-06T13:20:12;3.43;;;3.20;;
2259;SDS011;333;48.800;9.530;2022-07-06T13:22:40;6.00;;;3.20;;
2259;SDS011;333;48.800;9.530;2022-07-06T13:25:07;3.97;;;3.53;;
2259;SDS011;333;48.800;9.530;2022-07-06T13:27:36;3.47;;;3.17;;
2259;SDS011;333;48.800;9.530;2022-07-06T13:30:03;4.30;;;3.27;;
2259;SDS011;333;48.800;9.530;2022-07-06T13:32:31;3.10;;;2.83;;
2259;SDS011;333;48.800;9.530;2022-07-06T13:34:59;4.17;;;3.33;;
2259;SDS011;333;48.800;9.530;2022-07-06T13:37:26;4.00;;;3.53;;
2259;SDS011;333;48.800;9.530;2022-07-06T13:39:53;6.13;;;3.03;;
2259;SDS011;333;48.800;9.530;2022-07-06T13:42:20;3.50;;;3.30;;
2259;SDS011;333;48.800;9.530;2022-07-06T13:44:49;4.20;;;3.80;;
2259;SDS011;333;48.800;9.530;2022-07-06T13:47:16;3.60;;;3.40;;
2259;SDS011;333;48.800;9.530;2022-07-06T13:49:43;3.20;;;2.90;;
2259;SDS011;333;48.800;9.530;2022-07-06T13:52:12;3.03;;;2.83;;
2259;SDS011;333;48.800;9.530;2022-07-06T13:54:39;4.00;;;3.70;;
2259;SDS011;333;48.800;9.530;2022-07-06T13:57:07;3.43;;;3.13;;
2259;SDS011;333;48.800;9.530;2022-07-06T13:59:34;3.03;;;2.83;;
2259;SDS011;333;48.800;9.530;2022-07-06T14:02:02;3.30;;;3.00;;
2259;SDS011;333;48.800;9.530;2022-07-06T14:04:30;3.23;;;3.03;;
2259;SDS011;333;48.800;9.530;2022-07-06T14:06:57;4.73;;;4.33;;
2259;SDS011;333;48.800;9.530;2022-07-06T14:09:24;2.80;;;2.60;;
2259;SDS011;333;48.800;9.530;2022-07-06T14:11:51;3.70;;;3.20;;
2259;SDS011;333;48.800;9.530;2022-07-06T14:14:18;4.57;;;4.17;;
2259;SDS011;333;48.800;9.530;2022-07-06T14:16:45;3.83;;;3.53;;
2259;SDS011;333;48.800;9.530;2022-07-06T14:19:14;5.43;;;3.37;;
2259;SDS011;333;48.800;9.530;2022-07-06T14:21:41;2.97;;;2.77;;
2259;SDS011;333;48.800;9.530;2022-07-06T14:24:11;3.40;;;3.20;;
2259;SDS011;333;48.800;9.530;2022-07-06T14:26:38;6.70;;;3.03;;
2259;SDS011;333;48.800;9.530;2022-07-06T14:29:05;2.73;;;2.53;;
2259;SDS011;333;48.800;9.530;2022-07-06T14:31:32;5.40;;;3.93;;
2259;SDS011;333;48.800;9.530;2022-07-06T14:34:00;3.53;;;2.60;;
2259;SDS011;333;48.800;9.530;2022-07-06T14:36:28;3.53;;;3.27;;
2259;SDS011;333;48.800;9.530;2022-07-06T14:38:56;3.20;;;3.00;;
2259;SDS011;333;48.800;9.530;2022-07-06T14:41:23;3.53;;;2.90;;
2259;SDS011;333;48.800;9.530;2022-07-06T14:43:51;2.83;;;2.63;;
2259;SDS011;333;48.800;9.530;2022-07-06T14:46:19;2.87;;;2.67;;
2259;SDS011;333;48.800;9.530;2022-07-06T14:48:46;3.73;;;2.80;;
2259;SDS011;333;48.800;9.530;2022-07-06T14:51:13;2.60;;;2.50;;
2259;SDS011;333;48.800;9.530;2022-07-06T14:53:42;2.90;;;2.70;;
2259;SDS011;333;48.800;9.530;2022-07-06T14:56:09;3.60;;;2.53;;
2259;SDS011;333;48.800;9.530;2022-07-06T14:58:36;3.50;;;2.90;;
2259;SDS011;333;48.800;9.530;2022-07-06T15:01:03;2.83;;;2.63;;
2259;SDS011;333;48.800;9.530;2022-07-06T15:03:31;3.23;;;2.90;;
2259;SDS011;333;48.800;9.530;2022-07-06T15:05:58;2.33;;;2.23;;
2259;SDS011;333;48.800;9.530;2022-07-06T15:08:25;2.50;;;2.30;;
2259;SDS011;333;48.800;9.530;2022-07-06T15:10:54;9.90;;;5.13;;
2259;SDS011;333;48.800;9.530;2022-07-06T15:13:21;6.17;;;2.93;;
2259;SDS011;333;48.800;9.530;2022-07-06T15:15:48;7.93;;;4.30;;
2259;SDS011;333;48.800;9.530;2022-07-06T15:18:16;2.37;;;2.27;;
2259;SDS011;333;48.800;9.530;2022-07-06T15:20:43;3.27;;;2.60;;
2259;SDS011;333;48.800;9.530;2022-07-06T15:23:11;2.90;;;2.70;;
2259;SDS011;333;48.800;9.530;2022-07-06T15:25:38;2.97;;;2.77;;
2259;SDS011;333;48.800;9.530;2022-07-06T15:28:07;5.03;;;3.33;;
2259;SDS011;333;48.800;9.530;2022-07-06T15:30:34;2.70;;;2.33;;
2259;SDS011;333;48.800;9.530;2022-07-06T15:33:01;3.63;;;2.57;;
2259;SDS011;333;48.800;9.530;2022-07-06T15:35:29;2.90;;;2.70;;
2259;SDS011;333;48.800;9.530;2022-07-06T15:37:56;3.13;;;2.80;;
2259;SDS011;333;48.800;9.530;2022-07-06T15:40:23;2.97;;;2.67;;